Time;durP1;ratioP1;P1;durP2;ratioP2;P2;SDS_P1;SDS_P2;PMS_P1;PMS_P2;Temp;Humidity;BMP_temperature;BMP_pressure;BME280_temperature;BME280_humidity;BME280_pressure;Samples;Min_cycle;Max_cycle;Signal;HPM_P1;HPM_P2
2022/05/17 00:01:06;;;;;;;5.40;3.45;;;;;;;;;;5049235;28;20057;-68
2022/05/17 00:03:34;;;;;;;4.93;3.50;;;;;;;;;;5033990;28;20048;-68
2022/05/17 00:06:01;;;;;;;5.13;3.40;;;;;;;;;;5034003;28;20500;-68
2022/05/17 00:08:27;;;;;;;5.82;3.13;;;;;;;;;;5033856;28;20103;-68
2022/05/17 00:10:54;;;;;;;4.43;3.45;;;;;;;;;;5033686;28;20046;-69
2022/05/17 00:13:21;;;;;;;4.57;3.05;;;;;;;;;;5033512;28;20573;-69
2022/05/17 00:15:48;;;;;;;7.03;3.33;;;;;;;;;;5033756;28;20563;-68
2022/05/17 00:18:16;;;;;;;4.60;3.78;;;;;;;;;;5032572;28;20088;-68
2022/05/17 00:20:43;;;;;;;5.65;3.53;;;;;;;;;;5032249;28;20053;-68
2022/05/17 00:23:12;;;;;;;6.25;3.13;;;;;;;;;;5032315;28;20049;-68
2022/05/17 00:25:38;;;;;;;6.32;3.50;;;;;;;;;;5032565;28;20110;-68
2022/05/17 00:28:05;;;;;;;6.20;3.40;;;;;;;;;;5033636;28;20046;-68
2022/05/17 00:30:32;;;;;;;6.57;3.13;;;;;;;;;;5033496;28;20424;-68
2022/05/17 00:32:58;;;;;;;8.18;3.60;;;;;;;;;;5033238;28;20463;-68
2022/05/17 00:35:25;;;;;;;6.97;3.72;;;;;;;;;;5033186;28;20045;-68
2022/05/17 00:37:52;;;;;;;5.65;3.80;;;;;;;;;;5033441;28;20120;-67
2022/05/17 00:40:18;;;;;;;5.28;3.10;;;;;;;;;;5033229;28;20062;-68
2022/05/17 00:42:45;;;;;;;5.05;3.83;;;;;;;;;;5033158;28;20511;-68
2022/05/17 00:45:11;;;;;;;7.38;4.43;;;;;;;;;;5033227;28;20123;-69
2022/05/17 00:47:45;;;;;;;6.70;4.47;;;;;;;;;;5033092;28;20061;-68
2022/05/17 00:50:23;;;;;;;9.27;3.92;;;;;;;;;;5032374;28;20050;-68
2022/05/17 00:53:17;;;;;;;5.45;4.20;;;;;;;;;;5031602;28;20046;-68
2022/05/17 00:55:55;;;;;;;7.15;4.70;;;;;;;;;;5042231;28;20103;-68
2022/05/17 00:58:22;;;;;;;6.70;3.45;;;;;;;;;;5032774;28;20566;-67
2022/05/17 01:01:13;;;;;;;5.28;3.55;;;;;;;;;;5032741;28;20050;-67
2022/05/17 01:03:57;;;;;;;6.63;4.07;;;;;;;;;;5031944;28;20045;-67
2022/05/17 01:06:39;;;;;;;7.88;4.07;;;;;;;;;;5031723;28;20552;-68
2022/05/17 01:09:06;;;;;;;5.47;3.70;;;;;;;;;;5032599;28;20535;-68
2022/05/17 01:11:33;;;;;;;7.70;3.80;;;;;;;;;;5032752;28;20065;-68
2022/05/17 01:16:44;;;;;;;7.82;4.22;;;;;;;;;;5032737;28;20049;-69
2022/05/17 01:19:12;;;;;;;7.10;4.13;;;;;;;;;;5033017;28;20459;-69
2022/05/17 01:21:39;;;;;;;9.52;4.30;;;;;;;;;;5031263;28;20057;-69
2022/05/17 01:24:06;;;;;;;10.05;4.70;;;;;;;;;;5032277;28;20049;-68
2022/05/17 01:26:34;;;;;;;5.90;4.30;;;;;;;;;;5032342;28;20076;-69
2022/05/17 01:29:01;;;;;;;5.25;3.75;;;;;;;;;;5030885;28;20053;-67
2022/05/17 01:31:28;;;;;;;6.47;4.50;;;;;;;;;;5032107;28;20115;-68
2022/05/17 01:33:55;;;;;;;9.10;4.28;;;;;;;;;;5047596;28;20042;-69
2022/05/17 01:36:23;;;;;;;9.70;4.07;;;;;;;;;;5032694;28;20053;-68
2022/05/17 01:38:51;;;;;;;9.30;4.63;;;;;;;;;;5032513;28;20077;-68
2022/05/17 01:41:19;;;;;;;7.05;4.80;;;;;;;;;;5032037;28;20520;-68
2022/05/17 01:43:45;;;;;;;6.03;3.72;;;;;;;;;;5032489;28;20415;-67
2022/05/17 01:46:12;;;;;;;7.18;4.30;;;;;;;;;;5032017;28;20060;-69
2022/05/17 01:48:39;;;;;;;11.05;4.03;;;;;;;;;;5032278;28;20061;-69
2022/05/17 01:51:07;;;;;;;5.72;4.88;;;;;;;;;;5031627;28;20049;-68
2022/05/17 01:53:34;;;;;;;7.63;4.55;;;;;;;;;;5032207;28;20080;-68
2022/05/17 01:56:01;;;;;;;7.88;4.97;;;;;;;;;;5032342;28;20053;-68
2022/05/17 01:58:28;;;;;;;8.30;4.47;;;;;;;;;;5031840;28;20057;-68
2022/05/17 02:00:55;;;;;;;5.63;3.92;;;;;;;;;;5031587;28;20053;-68
2022/05/17 02:03:22;;;;;;;8.75;4.47;;;;;;;;;;5031663;28;20578;-67
2022/05/17 02:05:48;;;;;;;7.35;4.22;;;;;;;;;;5030653;28;20053;-68
2022/05/17 02:08:15;;;;;;;7.55;4.30;;;;;;;;;;5031826;28;20053;-68
2022/05/17 02:10:41;;;;;;;6.03;4.30;;;;;;;;;;5031565;28;20115;-67
2022/05/17 02:13:08;;;;;;;6.30;4.45;;;;;;;;;;5031408;28;20046;-68
2022/05/17 02:15:36;;;;;;;9.15;4.38;;;;;;;;;;5031897;28;20057;-69
2022/05/17 02:18:02;;;;;;;10.18;4.72;;;;;;;;;;5031873;28;20053;-68
2022/05/17 02:20:30;;;;;;;7.80;4.30;;;;;;;;;;5031631;28;20128;-69
2022/05/17 02:22:57;;;;;;;9.13;4.78;;;;;;;;;;5031449;28;20041;-68
2022/05/17 02:25:24;;;;;;;7.07;4.60;;;;;;;;;;5031608;28;20049;-68
2022/05/17 02:27:50;;;;;;;7.07;4.57;;;;;;;;;;5031510;28;20470;-67
2022/05/17 02:30:17;;;;;;;6.95;4.85;;;;;;;;;;5031384;28;20148;-68
2022/05/17 02:32:44;;;;;;;6.72;4.70;;;;;;;;;;5031444;28;20045;-68
2022/05/17 02:35:12;;;;;;;9.88;4.82;;;;;;;;;;5031504;28;20052;-67
2022/05/17 02:37:39;;;;;;;6.72;4.80;;;;;;;;;;5030296;28;20566;-68
2022/05/17 02:40:07;;;;;;;7.35;4.72;;;;;;;;;;5031555;28;20463;-68
2022/05/17 02:42:34;;;;;;;5.95;4.63;;;;;;;;;;5035199;28;20459;-69
2022/05/17 02:45:01;;;;;;;7.18;4.57;;;;;;;;;;5035396;28;20107;-67
2022/05/17 02:47:27;;;;;;;5.63;4.38;;;;;;;;;;5035385;28;20100;-68
2022/05/17 02:49:54;;;;;;;8.82;5.13;;;;;;;;;;5050402;28;20487;-68
2022/05/17 02:52:20;;;;;;;5.05;4.50;;;;;;;;;;5050435;28;20278;-68
2022/05/17 02:54:47;;;;;;;6.88;4.88;;;;;;;;;;5035200;28;20523;-68
2022/05/17 02:57:14;;;;;;;7.50;5.03;;;;;;;;;;5035210;28;20103;-68
2022/05/17 02:59:40;;;;;;;6.47;4.65;;;;;;;;;;5034982;28;20554;-68
2022/05/17 03:02:07;;;;;;;7.30;5.35;;;;;;;;;;5035117;28;20057;-68
2022/05/17 03:04:34;;;;;;;8.20;4.85;;;;;;;;;;5035125;28;20061;-69
2022/05/17 03:07:00;;;;;;;5.55;4.03;;;;;;;;;;5034998;28;20050;-68
2022/05/17 03:09:27;;;;;;;5.70;4.68;;;;;;;;;;5034674;28;20467;-68
2022/05/17 03:11:53;;;;;;;5.93;4.20;;;;;;;;;;5035076;28;20049;-68
2022/05/17 03:14:22;;;;;;;8.23;4.57;;;;;;;;;;5034853;28;20045;-69
2022/05/17 03:16:48;;;;;;;6.22;4.78;;;;;;;;;;5034949;28;20053;-68
2022/05/17 03:19:17;;;;;;;11.55;5.05;;;;;;;;;;5034718;28;20053;-69
2022/05/17 03:21:43;;;;;;;8.50;5.07;;;;;;;;;;5034673;28;20111;-67
2022/05/17 03:24:10;;;;;;;5.47;4.60;;;;;;;;;;5034580;28;20463;-69
2022/05/17 03:26:57;;;;;;;9.38;4.45;;;;;;;;;;5035038;28;20092;-68
2022/05/17 03:29:24;;;;;;;6.57;4.70;;;;;;;;;;5034684;28;20061;-68
2022/05/17 03:31:51;;;;;;;7.57;4.78;;;;;;;;;;5034492;28;20538;-68
2022/05/17 03:34:18;;;;;;;9.27;5.38;;;;;;;;;;5035003;28;20133;-68
2022/05/17 03:36:44;;;;;;;9.48;5.00;;;;;;;;;;5035755;28;20454;-67
2022/05/17 03:39:11;;;;;;;7.32;5.68;;;;;;;;;;5035554;28;20107;-68
2022/05/17 03:41:38;;;;;;;8.15;5.55;;;;;;;;;;5034856;28;20365;-68
2022/05/17 03:44:04;;;;;;;8.68;5.43;;;;;;;;;;5034711;28;20103;-68
2022/05/17 03:46:31;;;;;;;11.38;6.00;;;;;;;;;;5034716;28;20451;-68
2022/05/17 03:48:59;;;;;;;7.40;4.60;;;;;;;;;;5034657;28;20446;-68
2022/05/17 03:51:27;;;;;;;8.05;5.47;;;;;;;;;;5040654;22;20045;-69
2022/05/17 03:53:54;;;;;;;12.48;5.30;;;;;;;;;;5013234;28;20046;-69
2022/05/17 03:56:20;;;;;;;7.32;4.85;;;;;;;;;;5014488;28;20049;-69
2022/05/17 03:58:47;;;;;;;8.32;5.10;;;;;;;;;;5014436;28;20054;-69
2022/05/17 04:01:13;;;;;;;9.00;4.65;;;;;;;;;;5014049;28;20093;-69
2022/05/17 04:03:41;;;;;;;8.65;5.22;;;;;;;;;;5029188;28;20057;-69
2022/05/17 04:06:07;;;;;;;7.13;5.22;;;;;;;;;;5014075;28;20496;-69
2022/05/17 04:08:36;;;;;;;9.93;5.30;;;;;;;;;;5014263;28;20054;-69
2022/05/17 04:11:04;;;;;;;16.80;6.45;;;;;;;;;;5013961;28;20092;-68
2022/05/17 04:13:32;;;;;;;6.43;5.03;;;;;;;;;;5013940;28;20045;-69
2022/05/17 04:15:59;;;;;;;7.05;5.68;;;;;;;;;;5013793;28;20103;-68
2022/05/17 04:18:26;;;;;;;6.35;4.88;;;;;;;;;;5013972;28;20046;-69
2022/05/17 04:20:58;;;;;;;11.02;5.65;;;;;;;;;;5028778;28;20559;-69
2022/05/17 04:23:24;;;;;;;9.13;4.95;;;;;;;;;;5013856;28;20053;-69
2022/05/17 04:25:51;;;;;;;7.45;5.55;;;;;;;;;;5013773;28;20049;-69
2022/05/17 04:28:18;;;;;;;5.55;4.72;;;;;;;;;;5013665;28;20080;-69
2022/05/17 04:30:44;;;;;;;8.90;5.07;;;;;;;;;;5013316;28;20054;-69
2022/05/17 04:33:12;;;;;;;8.02;5.35;;;;;;;;;;5013703;28;20053;-69
2022/05/17 04:35:40;;;;;;;6.88;5.85;;;;;;;;;;5013485;28;20053;-69
2022/05/17 04:38:07;;;;;;;9.02;5.20;;;;;;;;;;5013701;28;20050;-69
2022/05/17 04:40:34;;;;;;;8.02;4.78;;;;;;;;;;5013330;28;20104;-69
2022/05/17 04:43:01;;;;;;;6.82;5.03;;;;;;;;;;5013381;28;20059;-69
2022/05/17 04:45:28;;;;;;;7.63;4.93;;;;;;;;;;5013714;28;20129;-69
2022/05/17 04:47:54;;;;;;;11.15;5.28;;;;;;;;;;5013435;28;20058;-69
2022/05/17 04:50:21;;;;;;;9.15;5.35;;;;;;;;;;5013143;28;20108;-69
2022/05/17 04:52:48;;;;;;;5.55;4.68;;;;;;;;;;5013024;28;20563;-69
2022/05/17 04:55:16;;;;;;;8.27;6.05;;;;;;;;;;5013226;28;20065;-69
2022/05/17 04:57:44;;;;;;;9.52;5.25;;;;;;;;;;5013144;28;20104;-69
2022/05/17 05:00:12;;;;;;;6.75;4.85;;;;;;;;;;5013045;28;20050;-69
2022/05/17 05:02:39;;;;;;;6.93;5.20;;;;;;;;;;5012835;28;20056;-69
2022/05/17 05:05:06;;;;;;;5.97;5.22;;;;;;;;;;5012870;28;20433;-70
2022/05/17 05:07:33;;;;;;;10.48;5.85;;;;;;;;;;5028175;28;20053;-69
2022/05/17 05:10:00;;;;;;;11.27;5.82;;;;;;;;;;5013007;28;20058;-69
2022/05/17 05:12:26;;;;;;;10.25;5.43;;;;;;;;;;5012798;28;20054;-69
2022/05/17 05:14:53;;;;;;;7.47;5.03;;;;;;;;;;5013081;28;20042;-69
2022/05/17 05:17:19;;;;;;;10.82;6.50;;;;;;;;;;5012953;28;20104;-69
2022/05/17 05:19:46;;;;;;;8.85;5.95;;;;;;;;;;5012920;28;20058;-71
2022/05/17 05:22:12;;;;;;;9.80;5.90;;;;;;;;;;5012694;28;20054;-71
2022/05/17 05:24:39;;;;;;;8.40;5.93;;;;;;;;;;5012658;28;20046;-71
2022/05/17 05:27:06;;;;;;;9.88;5.32;;;;;;;;;;5012557;28;20553;-71
2022/05/17 05:29:34;;;;;;;11.75;5.90;;;;;;;;;;5012537;28;20058;-72
2022/05/17 05:32:00;;;;;;;9.70;5.28;;;;;;;;;;5012536;28;20050;-72
2022/05/17 05:34:27;;;;;;;8.77;5.70;;;;;;;;;;5012342;28;20050;-71
2022/05/17 05:36:54;;;;;;;8.73;5.13;;;;;;;;;;5012585;28;20049;-72
2022/05/17 05:39:21;;;;;;;7.70;5.80;;;;;;;;;;5012390;28;20054;-72
2022/05/17 05:41:48;;;;;;;9.23;5.40;;;;;;;;;;5012570;28;20061;-71
2022/05/17 05:44:15;;;;;;;8.48;5.25;;;;;;;;;;5012347;28;20050;-72
2022/05/17 05:46:41;;;;;;;11.07;5.30;;;;;;;;;;5012305;28;20058;-71
2022/05/17 05:49:09;;;;;;;8.30;5.18;;;;;;;;;;5012342;28;20049;-69
2022/05/17 05:51:36;;;;;;;7.53;5.05;;;;;;;;;;5012024;28;20449;-69
2022/05/17 05:54:03;;;;;;;8.35;4.75;;;;;;;;;;5012098;28;20115;-68
2022/05/17 05:56:30;;;;;;;7.07;4.78;;;;;;;;;;5012417;28;20112;-69
2022/05/17 05:58:56;;;;;;;12.10;5.47;;;;;;;;;;5012339;28;20054;-68
2022/05/17 06:01:23;;;;;;;11.20;6.00;;;;;;;;;;5010912;28;20054;-69
2022/05/17 06:03:50;;;;;;;8.30;5.85;;;;;;;;;;5011894;28;20050;-69
2022/05/17 06:06:17;;;;;;;11.77;6.18;;;;;;;;;;5012150;28;20057;-68
2022/05/17 06:08:43;;;;;;;9.75;5.68;;;;;;;;;;5011921;28;20054;-69
2022/05/17 06:11:10;;;;;;;6.03;5.00;;;;;;;;;;5011830;28;20099;-69
2022/05/17 06:13:37;;;;;;;6.60;5.05;;;;;;;;;;5012107;28;20054;-69
2022/05/17 06:16:04;;;;;;;11.13;5.10;;;;;;;;;;5011274;28;20084;-69
2022/05/17 06:18:31;;;;;;;8.02;5.60;;;;;;;;;;5012190;28;20050;-68
2022/05/17 06:21:00;;;;;;;11.10;5.57;;;;;;;;;;5011689;28;20053;-68
2022/05/17 06:23:26;;;;;;;6.68;5.35;;;;;;;;;;5011870;28;20050;-68
2022/05/17 06:25:53;;;;;;;11.90;5.95;;;;;;;;;;5012088;28;20054;-68
2022/05/17 06:28:20;;;;;;;8.18;6.03;;;;;;;;;;5012022;28;20057;-68
2022/05/17 06:30:47;;;;;;;9.07;5.40;;;;;;;;;;5011743;28;20397;-69
2022/05/17 06:33:15;;;;;;;7.70;5.45;;;;;;;;;;5011779;28;20050;-69
2022/05/17 06:35:43;;;;;;;10.38;5.22;;;;;;;;;;5011822;28;20053;-68
2022/05/17 06:38:09;;;;;;;12.07;5.88;;;;;;;;;;5011952;28;20061;-69
2022/05/17 06:40:36;;;;;;;6.47;4.68;;;;;;;;;;5011944;28;20053;-69
2022/05/17 06:43:03;;;;;;;7.30;4.90;;;;;;;;;;5011788;28;20555;-68
2022/05/17 06:45:30;;;;;;;9.35;5.68;;;;;;;;;;5011892;28;20069;-68
2022/05/17 06:47:57;;;;;;;9.32;5.75;;;;;;;;;;5011728;28;20053;-68
2022/05/17 06:50:24;;;;;;;10.48;5.70;;;;;;;;;;5011434;28;20050;-68
2022/05/17 06:52:51;;;;;;;8.35;4.80;;;;;;;;;;5011738;28;20116;-69
2022/05/17 06:55:17;;;;;;;7.80;5.35;;;;;;;;;;5011814;28;20085;-69
2022/05/17 06:57:44;;;;;;;8.00;4.78;;;;;;;;;;5011810;28;20071;-69
2022/05/17 07:00:12;;;;;;;8.02;5.07;;;;;;;;;;5011663;28;20049;-69
2022/05/17 07:02:39;;;;;;;6.40;4.25;;;;;;;;;;5011383;28;20053;-69
2022/05/17 07:05:07;;;;;;;9.32;4.82;;;;;;;;;;5011520;28;20081;-69
2022/05/17 07:07:43;;;;;;;7.05;4.43;;;;;;;;;;5011945;28;20057;-69
2022/05/17 07:13:09;;;;;;;8.57;4.30;;;;;;;;;;5011285;28;20054;-70
2022/05/17 07:15:43;;;;;;;6.47;5.22;;;;;;;;;;5011813;28;20050;-69
2022/05/17 07:18:12;;;;;;;8.95;4.88;;;;;;;;;;5011562;28;20057;-69
2022/05/17 07:20:39;;;;;;;5.78;4.45;;;;;;;;;;5026546;28;20050;-69
2022/05/17 07:23:06;;;;;;;9.88;5.10;;;;;;;;;;5010275;28;20464;-69
2022/05/17 07:25:33;;;;;;;7.18;4.57;;;;;;;;;;5011562;28;20049;-69
2022/05/17 07:28:00;;;;;;;7.60;4.97;;;;;;;;;;5014374;28;20053;-69
2022/05/17 07:30:27;;;;;;;9.60;5.40;;;;;;;;;;5015086;28;20500;-69
2022/05/17 07:32:54;;;;;;;7.65;4.55;;;;;;;;;;5014654;28;20100;-69
2022/05/17 07:35:21;;;;;;;6.32;4.53;;;;;;;;;;5015261;28;20046;-69
2022/05/17 07:37:48;;;;;;;7.80;4.57;;;;;;;;;;5015167;28;20136;-69
2022/05/17 07:40:16;;;;;;;8.10;4.90;;;;;;;;;;5024538;28;20055;-70
2022/05/17 07:42:43;;;;;;;7.22;4.20;;;;;;;;;;5036744;28;20038;-69
2022/05/17 07:45:11;;;;;;;7.22;4.32;;;;;;;;;;5015487;28;20057;-70
2022/05/17 07:47:38;;;;;;;5.85;3.72;;;;;;;;;;5015832;28;20057;-70
2022/05/17 07:50:06;;;;;;;8.25;4.25;;;;;;;;;;5015657;28;20057;-69
2022/05/17 07:52:32;;;;;;;6.15;3.83;;;;;;;;;;5014268;28;20053;-69
2022/05/17 07:55:00;;;;;;;4.80;3.03;;;;;;;;;;5014201;28;20099;-69
2022/05/17 07:57:27;;;;;;;5.47;3.35;;;;;;;;;;5014619;28;20057;-70
2022/05/17 07:59:54;;;;;;;5.05;3.08;;;;;;;;;;5025473;28;20061;-70
2022/05/17 08:02:20;;;;;;;4.38;2.50;;;;;;;;;;5034986;28;20050;-71
2022/05/17 08:04:47;;;;;;;3.20;2.60;;;;;;;;;;5036736;28;20050;-70
2022/05/17 08:07:14;;;;;;;7.35;2.70;;;;;;;;;;5050562;28;20050;-71
2022/05/17 08:09:41;;;;;;;7.68;2.80;;;;;;;;;;5035280;28;20080;-71
2022/05/17 08:12:09;;;;;;;6.07;2.80;;;;;;;;;;5037026;28;20084;-71
2022/05/17 08:14:37;;;;;;;7.05;2.65;;;;;;;;;;5021233;28;20049;-70
2022/05/17 08:17:06;;;;;;;4.57;2.72;;;;;;;;;;5014018;28;20105;-69
2022/05/17 08:19:37;;;;;;;5.28;2.88;;;;;;;;;;5013927;28;20054;-70
2022/05/17 08:22:05;;;;;;;4.43;2.47;;;;;;;;;;5013683;28;20448;-70
2022/05/17 08:27:31;;;;;;;5.78;2.88;;;;;;;;;;5013826;28;20077;-70
2022/05/17 08:27:39;;;;;;;5.28;2.65;;;;;;;;;;5014075;28;20054;-70
2022/05/17 08:30:10;;;;;;;7.45;2.60;;;;;;;;;;5013766;28;20049;-70
2022/05/17 08:35:55;;;;;;;5.32;2.53;;;;;;;;;;5012544;28;20562;-69
2022/05/17 08:38:32;;;;;;;5.78;2.72;;;;;;;;;;5011725;28;20046;-69
2022/05/17 08:41:25;;;;;;;5.57;1.80;;;;;;;;;;5013202;28;20158;-70
2022/05/17 08:44:03;;;;;;;5.35;2.30;;;;;;;;;;5012347;28;20050;-70
2022/05/17 08:46:58;;;;;;;4.07;2.08;;;;;;;;;;5028671;28;20054;-70
2022/05/17 08:50:06;;;;;;;5.32;2.63;;;;;;;;;;5013205;28;20493;-69
2022/05/17 08:52:32;;;;;;;6.30;2.70;;;;;;;;;;5013261;28;20053;-69
2022/05/17 08:54:59;;;;;;;3.72;2.38;;;;;;;;;;5012031;28;20046;-70
2022/05/17 08:57:39;;;;;;;5.30;2.17;;;;;;;;;;5013171;28;20108;-69
2022/05/17 09:00:19;;;;;;;6.82;2.97;;;;;;;;;;5011965;28;20093;-68
2022/05/17 09:03:09;;;;;;;3.85;2.35;;;;;;;;;;5011964;28;20137;-68
2022/05/17 09:06:05;;;;;;;4.30;2.47;;;;;;;;;;5012969;28;20104;-69
2022/05/17 09:08:43;;;;;;;5.05;2.30;;;;;;;;;;5004368;28;20393;-69
2022/05/17 09:11:21;;;;;;;5.50;2.80;;;;;;;;;;5012193;28;20058;-69
2022/05/17 09:14:02;;;;;;;5.15;2.38;;;;;;;;;;5011638;28;20080;-69
2022/05/17 09:16:45;;;;;;;3.58;2.08;;;;;;;;;;5027381;28;20049;-68
2022/05/17 09:19:14;;;;;;;2.65;1.73;;;;;;;;;;5011753;28;20124;-69
2022/05/17 09:21:43;;;;;;;4.90;3.10;;;;;;;;;;5012707;28;20103;-68
2022/05/17 09:24:12;;;;;;;4.78;2.20;;;;;;;;;;5013153;28;20050;-70
2022/05/17 09:26:51;;;;;;;5.18;2.35;;;;;;;;;;5012625;28;20076;-69
2022/05/17 09:29:21;;;;;;;4.82;2.53;;;;;;;;;;5011677;28;20054;-69
2022/05/17 09:31:52;;;;;;;4.05;2.65;;;;;;;;;;5012598;28;20053;-69
2022/05/17 09:34:32;;;;;;;5.38;2.63;;;;;;;;;;5012465;28;20053;-69
2022/05/17 09:37:13;;;;;;;6.07;2.30;;;;;;;;;;5012607;28;20053;-69
2022/05/17 09:39:45;;;;;;;5.82;2.22;;;;;;;;;;5012610;28;20054;-69
2022/05/17 09:42:26;;;;;;;6.28;2.55;;;;;;;;;;5012292;28;20050;-69
2022/05/17 09:44:56;;;;;;;2.83;2.22;;;;;;;;;;5012491;28;20078;-69
2022/05/17 09:47:28;;;;;;;2.63;1.75;;;;;;;;;;5012316;28;20129;-70
2022/05/17 09:52:46;;;;;;;6.00;2.65;;;;;;;;;;5012237;28;20069;-70
2022/05/17 09:55:21;;;;;;;7.35;2.38;;;;;;;;;;5012184;28;20570;-70
2022/05/17 09:57:58;;;;;;;3.38;2.17;;;;;;;;;;5012219;28;20084;-69
2022/05/17 10:00:35;;;;;;;3.45;2.20;;;;;;;;;;5012209;28;20515;-69
2022/05/17 10:03:07;;;;;;;4.00;2.65;;;;;;;;;;5012209;28;20046;-69
2022/05/17 10:05:37;;;;;;;5.57;2.83;;;;;;;;;;5011514;28;20046;-69
2022/05/17 10:08:12;;;;;;;8.20;3.10;;;;;;;;;;5012101;28;20497;-70
2022/05/17 10:10:44;;;;;;;4.43;2.22;;;;;;;;;;5011897;28;20542;-70
2022/05/17 10:13:51;;;;;;;4.40;2.38;;;;;;;;;;5010989;28;20496;-70
2022/05/17 10:16:45;;;;;;;4.15;1.70;;;;;;;;;;4942089;29;20249;-71
2022/05/17 10:19:39;;;;;;;9.10;2.00;;;;;;;;;;5020000;28;20050;-71
2022/05/17 10:22:28;;;;;;;5.30;2.40;;;;;;;;;;5023820;28;20567;-70
2022/05/17 10:24:58;;;;;;;3.70;2.55;;;;;;;;;;5017742;28;20520;-70
2022/05/17 10:27:31;;;;;;;6.43;2.00;;;;;;;;;;5029122;28;20069;-70
2022/05/17 10:30:05;;;;;;;4.90;2.08;;;;;;;;;;5018014;28;20054;-70
2022/05/17 10:32:32;;;;;;;4.95;2.40;;;;;;;;;;5011062;28;20045;-70
2022/05/17 10:35:16;;;;;;;5.43;2.42;;;;;;;;;;5011822;28;20057;-69
2022/05/17 10:37:48;;;;;;;6.13;2.08;;;;;;;;;;5010951;28;20054;-70
2022/05/17 10:40:28;;;;;;;3.45;2.38;;;;;;;;;;5010546;28;20057;-69
2022/05/17 10:42:55;;;;;;;4.93;2.20;;;;;;;;;;5011674;28;20054;-69
2022/05/17 10:45:33;;;;;;;2.75;1.90;;;;;;;;;;5011331;28;20050;-71
2022/05/17 10:48:11;;;;;;;2.95;1.90;;;;;;;;;;5016187;28;20054;-70
2022/05/17 10:51:19;;;;;;;4.18;2.30;;;;;;;;;;5023571;28;20054;-69
2022/05/17 10:54:04;;;;;;;3.30;2.72;;;;;;;;;;4944001;29;20083;-69
2022/05/17 10:56:39;;;;;;;5.43;2.20;;;;;;;;;;4939348;29;20062;-71
2022/05/17 10:59:18;;;;;;;2.10;1.55;;;;;;;;;;4991014;28;20050;-70
2022/05/17 11:02:13;;;;;;;4.63;1.90;;;;;;;;;;5012729;28;20057;-70
2022/05/17 11:05:18;;;;;;;8.43;4.68;;;;;;;;;;5015273;28;20049;-69
2022/05/17 11:07:47;;;;;;;12.13;6.07;;;;;;;;;;5015381;28;20054;-70
2022/05/17 11:10:42;;;;;;;5.00;1.98;;;;;;;;;;5015242;28;20054;-70
2022/05/17 11:13:29;;;;;;;3.20;2.30;;;;;;;;;;5014332;28;20112;-70
2022/05/17 11:16:24;;;;;;;8.02;1.88;;;;;;;;;;5014307;28;20065;-69
2022/05/17 11:19:15;;;;;;;3.42;1.55;;;;;;;;;;5027350;28;20100;-70
2022/05/17 11:21:52;;;;;;;3.58;1.73;;;;;;;;;;5030281;28;20050;-69
2022/05/17 11:24:50;;;;;;;4.80;1.60;;;;;;;;;;5013872;28;20054;-68
2022/05/17 11:27:59;;;;;;;4.18;1.25;;;;;;;;;;5013882;28;20049;-69
2022/05/17 11:30:31;;;;;;;4.18;1.75;;;;;;;;;;5005877;28;20408;-70
2022/05/17 11:33:30;;;;;;;2.92;1.92;;;;;;;;;;5016161;28;20528;-70
2022/05/17 11:36:01;;;;;;;4.40;1.55;;;;;;;;;;5016654;28;20523;-69
2022/05/17 11:38:37;;;;;;;4.07;1.88;;;;;;;;;;5017515;28;20058;-69
2022/05/17 11:41:09;;;;;;;2.28;1.40;;;;;;;;;;5015576;28;20061;-70
2022/05/17 11:44:02;;;;;;;4.23;1.40;;;;;;;;;;5015476;28;20104;-70
2022/05/17 11:46:30;;;;;;;2.28;1.20;;;;;;;;;;5015020;28;20050;-69
2022/05/17 11:49:22;;;;;;;2.70;1.13;;;;;;;;;;5014545;28;20053;-70
2022/05/17 11:51:58;;;;;;;2.13;1.30;;;;;;;;;;5013204;28;20104;-69
2022/05/17 11:54:45;;;;;;;2.95;1.15;;;;;;;;;;5014211;28;20049;-70
2022/05/17 11:57:25;;;;;;;2.50;0.95;;;;;;;;;;5014530;28;20050;-69
2022/05/17 11:59:57;;;;;;;2.90;0.68;;;;;;;;;;5013248;28;20497;-69
2022/05/17 12:02:43;;;;;;;;;;;;;;;;;;5014608;28;20053;-70
2022/05/17 12:05:10;;;;;;;3.53;1.13;;;;;;;;;;5014112;28;20354;-69
2022/05/17 12:07:37;;;;;;;4.35;1.23;;;;;;;;;;5014374;28;20054;-68
2022/05/17 12:10:11;;;;;;;4.13;1.33;;;;;;;;;;5029228;28;20088;-69
2022/05/17 12:12:50;;;;;;;2.15;1.00;;;;;;;;;;5014058;28;20053;-69
2022/05/17 12:15:34;;;;;;;1.65;1.13;;;;;;;;;;5012742;28;20046;-70
2022/05/17 12:18:13;;;;;;;2.20;1.00;;;;;;;;;;5013196;28;20050;-69
2022/05/17 12:20:53;;;;;;;1.45;0.95;;;;;;;;;;5013900;28;20060;-68
2022/05/17 12:23:34;;;;;;;3.08;1.50;;;;;;;;;;5012810;28;20202;-69
2022/05/17 12:26:09;;;;;;;1.30;0.90;;;;;;;;;;5013892;28;20046;-69
2022/05/17 12:28:41;;;;;;;2.08;1.20;;;;;;;;;;5013020;28;20080;-70
2022/05/17 12:31:10;;;;;;;2.95;1.20;;;;;;;;;;5012616;28;20261;-69
2022/05/17 12:33:42;;;;;;;2.70;1.30;;;;;;;;;;5013805;28;20085;-70
2022/05/17 12:36:16;;;;;;;1.30;1.02;;;;;;;;;;5013526;28;20054;-70
2022/05/17 12:44:49;;;;;;;2.10;1.10;;;;;;;;;;5025800;28;20107;-70
2022/05/17 12:47:28;;;;;;;1.50;1.17;;;;;;;;;;5028889;28;20104;-70
2022/05/17 12:49:56;;;;;;;1.88;0.90;;;;;;;;;;5013070;28;20069;-69
2022/05/17 12:52:33;;;;;;;2.25;1.15;;;;;;;;;;5013198;28;20058;-69
2022/05/17 12:55:21;;;;;;;2.33;1.05;;;;;;;;;;5028360;28;20096;-69
2022/05/17 12:57:48;;;;;;;1.88;0.95;;;;;;;;;;5013512;28;20045;-69
2022/05/17 13:00:24;;;;;;;2.72;1.30;;;;;;;;;;5028449;28;20520;-69
2022/05/17 13:02:55;;;;;;;1.38;1.00;;;;;;;;;;5013072;28;20053;-70
2022/05/17 13:05:35;;;;;;;2.58;1.10;;;;;;;;;;5013038;28;20042;-70
2022/05/17 13:08:10;;;;;;;3.47;1.23;;;;;;;;;;5013288;28;20124;-70
2022/05/17 13:10:40;;;;;;;3.50;0.90;;;;;;;;;;5012810;28;20088;-70
2022/05/17 13:13:18;;;;;;;3.50;0.85;;;;;;;;;;5012819;28;20501;-70
2022/05/17 13:15:54;;;;;;;1.58;0.80;;;;;;;;;;5012897;28;20046;-70
2022/05/17 13:18:22;;;;;;;2.53;1.05;;;;;;;;;;5028327;28;20112;-70
2022/05/17 13:20:50;;;;;;;3.85;0.90;;;;;;;;;;5011411;28;20049;-70
2022/05/17 13:23:20;;;;;;;4.05;1.02;;;;;;;;;;5014713;28;20061;-71
2022/05/17 13:25:46;;;;;;;1.65;1.10;;;;;;;;;;5011319;28;20096;-70
2022/05/17 13:28:23;;;;;;;2.15;1.15;;;;;;;;;;5027748;28;20054;-70
2022/05/17 13:30:49;;;;;;;4.30;1.08;;;;;;;;;;5011508;28;20049;-70
2022/05/17 13:33:37;;;;;;;3.47;1.23;;;;;;;;;;5027867;28;20057;-70
2022/05/17 13:36:12;;;;;;;2.03;1.10;;;;;;;;;;5012734;28;20555;-70
2022/05/17 13:38:39;;;;;;;1.92;1.10;;;;;;;;;;5012521;28;20056;-69
2022/05/17 13:41:21;;;;;;;2.17;1.35;;;;;;;;;;5012644;28;20050;-69
2022/05/17 13:43:57;;;;;;;3.40;1.05;;;;;;;;;;5026826;28;20062;-69
2022/05/17 13:46:27;;;;;;;1.02;0.80;;;;;;;;;;5011341;28;20049;-70
2022/05/17 13:49:24;;;;;;;3.03;1.10;;;;;;;;;;5011480;28;20104;-70
2022/05/17 13:52:25;;;;;;;3.08;1.27;;;;;;;;;;5002034;28;20057;-70
2022/05/17 13:54:54;;;;;;;2.38;1.00;;;;;;;;;;4998805;28;20049;-70
2022/05/17 13:57:35;;;;;;;2.25;0.95;;;;;;;;;;5027306;28;20049;-70
2022/05/17 14:00:17;;;;;;;2.15;1.00;;;;;;;;;;5012679;28;20100;-69
2022/05/17 14:02:47;;;;;;;2.55;0.82;;;;;;;;;;5012149;28;20472;-69
2022/05/17 14:05:16;;;;;;;1.40;0.90;;;;;;;;;;5012294;28;20046;-70
2022/05/17 14:07:52;;;;;;;3.63;1.05;;;;;;;;;;5012067;28;20052;-70
2022/05/17 14:13:14;;;;;;;1.88;0.88;;;;;;;;;;5012187;28;20108;-70
2022/05/17 14:15:41;;;;;;;1.05;0.77;;;;;;;;;;5012242;28;20042;-70
2022/05/17 14:18:13;;;;;;;1.35;1.20;;;;;;;;;;5012165;28;20105;-70
2022/05/17 14:20:41;;;;;;;1.10;0.80;;;;;;;;;;5010986;28;20108;-69
2022/05/17 14:23:08;;;;;;;2.50;0.93;;;;;;;;;;5011885;28;20053;-70
2022/05/17 14:25:36;;;;;;;2.08;1.10;;;;;;;;;;5011942;28;20049;-69
2022/05/17 14:28:03;;;;;;;2.55;1.10;;;;;;;;;;5011928;28;20054;-69
2022/05/17 14:30:30;;;;;;;1.55;1.13;;;;;;;;;;5011975;28;20475;-69
2022/05/17 14:32:56;;;;;;;2.08;1.15;;;;;;;;;;5010689;28;20185;-70
2022/05/17 14:35:24;;;;;;;2.20;0.93;;;;;;;;;;5010618;28;20455;-69
2022/05/17 14:37:52;;;;;;;1.02;0.80;;;;;;;;;;5015084;28;20058;-69
2022/05/17 14:40:19;;;;;;;2.03;1.10;;;;;;;;;;5015889;28;20464;-70
2022/05/17 14:42:46;;;;;;;2.60;1.23;;;;;;;;;;5015677;28;20045;-70
2022/05/17 14:45:17;;;;;;;2.45;0.85;;;;;;;;;;5014979;28;20054;-69
2022/05/17 14:47:47;;;;;;;2.15;1.13;;;;;;;;;;5015702;28;20048;-70
2022/05/17 14:50:18;;;;;;;1.27;0.80;;;;;;;;;;5015606;28;20052;-69
2022/05/17 14:52:45;;;;;;;3.53;1.08;;;;;;;;;;5030261;28;20698;-69
2022/05/17 14:55:12;;;;;;;3.53;1.10;;;;;;;;;;5015747;28;20108;-70
2022/05/17 14:57:39;;;;;;;2.67;1.30;;;;;;;;;;5015466;28;20046;-69
2022/05/17 15:00:09;;;;;;;3.40;1.00;;;;;;;;;;5015272;28;20185;-69
2022/05/17 15:02:37;;;;;;;2.10;1.00;;;;;;;;;;5015615;28;20069;-70
2022/05/17 15:05:05;;;;;;;2.60;1.00;;;;;;;;;;5015595;28;20471;-70
2022/05/17 15:07:34;;;;;;;3.25;1.13;;;;;;;;;;5030556;28;20042;-70
2022/05/17 15:10:05;;;;;;;1.70;1.10;;;;;;;;;;4997958;28;20053;-70
2022/05/17 15:12:31;;;;;;;2.72;1.08;;;;;;;;;;5015127;28;20516;-71
2022/05/17 15:14:58;;;;;;;2.33;1.08;;;;;;;;;;5015357;28;20054;-70
2022/05/17 15:17:25;;;;;;;2.55;1.33;;;;;;;;;;5015341;28;20053;-70
2022/05/17 15:19:52;;;;;;;1.38;1.20;;;;;;;;;;5013977;28;20128;-70
2022/05/17 15:22:19;;;;;;;4.57;1.30;;;;;;;;;;5015021;28;20521;-70
2022/05/17 15:24:45;;;;;;;3.50;1.55;;;;;;;;;;5030223;28;20448;-70
2022/05/17 15:27:12;;;;;;;1.52;1.17;;;;;;;;;;5014937;28;20058;-69
2022/05/17 15:29:39;;;;;;;1.75;1.30;;;;;;;;;;5015093;28;20468;-72